sensor_id;sensor_type;location;lat;lon;timestamp;P1;durP1;ratioP1;P2;durP2;ratioP2
69910;SDS011;63555;49.920;17.868;2022-10-24T00:00:30;10.02;;;5.60;;
69910;SDS011;63555;49.920;17.868;2022-10-24T00:02:56;11.67;;;5.87;;
69910;SDS011;63555;49.920;17.868;2022-10-24T00:05:22;10.90;;;5.20;;
69910;SDS011;63555;49.920;17.868;2022-10-24T00:07:48;11.88;;;5.38;;
69910;SDS011;63555;49.920;17.868;2022-10-24T00:10:14;11.53;;;5.10;;
69910;SDS011;63555;49.920;17.868;2022-10-24T00:12:41;10.77;;;5.03;;
69910;SDS011;63555;49.920;17.868;2022-10-24T00:15:06;8.73;;;4.70;;
69910;SDS011;63555;49.920;17.868;2022-10-24T00:17:32;11.60;;;4.95;;
69910;SDS011;63555;49.920;17.868;2022-10-24T00:19:58;10.20;;;4.72;;
69910;SDS011;63555;49.920;17.868;2022-10-24T00:22:24;10.43;;;4.78;;
69910;SDS011;63555;49.920;17.868;2022-10-24T00:24:50;7.93;;;4.50;;
69910;SDS011;63555;49.920;17.868;2022-10-24T00:27:16;9.05;;;5.03;;
69910;SDS011;63555;49.920;17.868;2022-10-24T00:29:41;8.23;;;4.50;;
69910;SDS011;63555;49.920;17.868;2022-10-24T00:32:06;11.47;;;5.27;;
69910;SDS011;63555;49.920;17.868;2022-10-24T00:34:32;9.03;;;4.90;;
69910;SDS011;63555;49.920;17.868;2022-10-24T00:36:57;12.67;;;5.47;;
69910;SDS011;63555;49.920;17.868;2022-10-24T00:39:23;7.10;;;4.20;;
69910;SDS011;63555;49.920;17.868;2022-10-24T00:41:48;10.57;;;5.28;;
69910;SDS011;63555;49.920;17.868;2022-10-24T00:44:24;11.20;;;5.47;;
69910;SDS011;63555;49.920;17.868;2022-10-24T00:47:02;10.65;;;5.18;;
69910;SDS011;63555;49.920;17.868;2022-10-24T00:49:45;10.13;;;5.50;;
69910;SDS011;63555;49.920;17.868;2022-10-24T00:52:22;9.85;;;5.50;;
69910;SDS011;63555;49.920;17.868;2022-10-24T00:54:51;9.63;;;5.10;;
69910;SDS011;63555;49.920;17.868;2022-10-24T01:00:22;9.98;;;4.70;;
69910;SDS011;63555;49.920;17.868;2022-10-24T01:02:51;12.20;;;5.73;;
69910;SDS011;63555;49.920;17.868;2022-10-24T01:05:17;9.55;;;4.97;;
69910;SDS011;63555;49.920;17.868;2022-10-24T01:16:23;9.68;;;5.93;;
69910;SDS011;63555;49.920;17.868;2022-10-24T01:18:57;11.95;;;5.38;;
69910;SDS011;63555;49.920;17.868;2022-10-24T01:21:32;11.15;;;6.05;;
69910;SDS011;63555;49.920;17.868;2022-10-24T01:24:04;10.53;;;5.63;;
69910;SDS011;63555;49.920;17.868;2022-10-24T01:32:10;9.07;;;5.22;;
69910;SDS011;63555;49.920;17.868;2022-10-24T01:34:43;10.38;;;5.93;;
69910;SDS011;63555;49.920;17.868;2022-10-24T01:37:26;9.73;;;5.37;;
69910;SDS011;63555;49.920;17.868;2022-10-24T01:39:59;11.02;;;5.25;;
69910;SDS011;63555;49.920;17.868;2022-10-24T01:42:31;10.07;;;5.15;;
69910;SDS011;63555;49.920;17.868;2022-10-24T01:45:00;9.57;;;5.35;;
69910;SDS011;63555;49.920;17.868;2022-10-24T01:47:30;9.35;;;5.53;;
69910;SDS011;63555;49.920;17.868;2022-10-24T01:50:03;9.27;;;5.10;;
69910;SDS011;63555;49.920;17.868;2022-10-24T01:52:33;9.88;;;4.82;;
69910;SDS011;63555;49.920;17.868;2022-10-24T01:55:01;8.35;;;4.80;;
69910;SDS011;63555;49.920;17.868;2022-10-24T01:57:28;8.13;;;4.47;;
69910;SDS011;63555;49.920;17.868;2022-10-24T01:59:56;9.27;;;4.20;;
69910;SDS011;63555;49.920;17.868;2022-10-24T02:02:32;10.83;;;4.70;;
69910;SDS011;63555;49.920;17.868;2022-10-24T02:07:27;11.00;;;4.80;;
69910;SDS011;63555;49.920;17.868;2022-10-24T02:09:58;9.83;;;5.10;;
69910;SDS011;63555;49.920;17.868;2022-10-24T02:12:27;7.82;;;4.55;;
69910;SDS011;63555;49.920;17.868;2022-10-24T02:14:58;7.95;;;4.50;;
69910;SDS011;63555;49.920;17.868;2022-10-24T02:17:29;10.20;;;4.57;;
69910;SDS011;63555;49.920;17.868;2022-10-24T02:19:54;12.10;;;4.43;;
69910;SDS011;63555;49.920;17.868;2022-10-24T02:22:28;8.40;;;4.30;;
69910;SDS011;63555;49.920;17.868;2022-10-24T02:25:02;7.72;;;4.35;;
69910;SDS011;63555;49.920;17.868;2022-10-24T02:27:45;9.18;;;4.93;;
69910;SDS011;63555;49.920;17.868;2022-10-24T02:30:21;7.32;;;4.47;;
69910;SDS011;63555;49.920;17.868;2022-10-24T02:32:52;7.72;;;4.45;;
69910;SDS011;63555;49.920;17.868;2022-10-24T02:35:27;9.87;;;4.50;;
69910;SDS011;63555;49.920;17.868;2022-10-24T02:38:02;9.10;;;4.85;;
69910;SDS011;63555;49.920;17.868;2022-10-24T02:40:34;10.65;;;4.95;;
69910;SDS011;63555;49.920;17.868;2022-10-24T02:43:00;10.77;;;4.47;;
69910;SDS011;63555;49.920;17.868;2022-10-24T02:45:29;10.85;;;4.70;;
69910;SDS011;63555;49.920;17.868;2022-10-24T02:47:56;12.27;;;5.10;;
69910;SDS011;63555;49.920;17.868;2022-10-24T02:50:26;8.20;;;4.97;;
69910;SDS011;63555;49.920;17.868;2022-10-24T02:52:52;11.52;;;5.63;;
69910;SDS011;63555;49.920;17.868;2022-10-24T02:55:18;8.30;;;4.60;;
69910;SDS011;63555;49.920;17.868;2022-10-24T02:57:43;10.67;;;4.63;;
69910;SDS011;63555;49.920;17.868;2022-10-24T03:00:08;7.17;;;3.87;;
69910;SDS011;63555;49.920;17.868;2022-10-24T03:02:35;8.85;;;4.53;;
69910;SDS011;63555;49.920;17.868;2022-10-24T03:05:01;8.82;;;4.55;;
69910;SDS011;63555;49.920;17.868;2022-10-24T03:07:26;9.63;;;4.73;;
69910;SDS011;63555;49.920;17.868;2022-10-24T03:09:51;10.13;;;4.63;;
69910;SDS011;63555;49.920;17.868;2022-10-24T03:12:17;7.50;;;4.33;;
69910;SDS011;63555;49.920;17.868;2022-10-24T03:14:43;9.23;;;4.87;;
69910;SDS011;63555;49.920;17.868;2022-10-24T03:17:09;10.25;;;6.30;;
69910;SDS011;63555;49.920;17.868;2022-10-24T03:19:35;9.50;;;4.70;;
69910;SDS011;63555;49.920;17.868;2022-10-24T03:22:02;9.75;;;4.78;;
69910;SDS011;63555;49.920;17.868;2022-10-24T03:24:27;10.80;;;5.00;;
69910;SDS011;63555;49.920;17.868;2022-10-24T03:26:53;9.95;;;4.65;;
69910;SDS011;63555;49.920;17.868;2022-10-24T03:29:18;10.63;;;4.60;;
69910;SDS011;63555;49.920;17.868;2022-10-24T03:31:44;8.73;;;4.53;;
69910;SDS011;63555;49.920;17.868;2022-10-24T03:34:10;7.28;;;3.55;;
69910;SDS011;63555;49.920;17.868;2022-10-24T03:36:35;7.73;;;4.13;;
69910;SDS011;63555;49.920;17.868;2022-10-24T03:39:00;7.97;;;3.90;;
69910;SDS011;63555;49.920;17.868;2022-10-24T03:41:26;6.88;;;3.75;;
69910;SDS011;63555;49.920;17.868;2022-10-24T03:43:52;9.00;;;4.23;;
69910;SDS011;63555;49.920;17.868;2022-10-24T03:46:17;7.07;;;3.77;;
69910;SDS011;63555;49.920;17.868;2022-10-24T03:48:43;7.23;;;4.23;;
69910;SDS011;63555;49.920;17.868;2022-10-24T03:51:08;11.05;;;4.00;;
69910;SDS011;63555;49.920;17.868;2022-10-24T03:53:33;6.68;;;3.35;;
69910;SDS011;63555;49.920;17.868;2022-10-24T03:55:59;5.77;;;3.57;;
69910;SDS011;63555;49.920;17.868;2022-10-24T03:58:25;6.32;;;3.95;;
69910;SDS011;63555;49.920;17.868;2022-10-24T04:00:50;10.60;;;4.30;;
69910;SDS011;63555;49.920;17.868;2022-10-24T04:03:16;7.18;;;3.50;;
69910;SDS011;63555;49.920;17.868;2022-10-24T04:05:42;9.73;;;4.00;;
69910;SDS011;63555;49.920;17.868;2022-10-24T04:08:07;8.80;;;3.93;;
69910;SDS011;63555;49.920;17.868;2022-10-24T04:10:33;8.57;;;3.85;;
69910;SDS011;63555;49.920;17.868;2022-10-24T04:12:58;11.07;;;4.70;;
69910;SDS011;63555;49.920;17.868;2022-10-24T04:15:24;9.57;;;4.20;;
69910;SDS011;63555;49.920;17.868;2022-10-24T04:17:49;7.43;;;3.93;;
69910;SDS011;63555;49.920;17.868;2022-10-24T04:20:14;11.10;;;4.10;;
69910;SDS011;63555;49.920;17.868;2022-10-24T04:22:43;6.72;;;3.72;;
69910;SDS011;63555;49.920;17.868;2022-10-24T04:25:09;10.55;;;4.25;;
69910;SDS011;63555;49.920;17.868;2022-10-24T04:27:35;9.60;;;3.80;;
69910;SDS011;63555;49.920;17.868;2022-10-24T04:30:05;6.95;;;3.97;;
69910;SDS011;63555;49.920;17.868;2022-10-24T04:32:31;9.10;;;4.35;;
69910;SDS011;63555;49.920;17.868;2022-10-24T04:34:57;10.77;;;4.47;;
69910;SDS011;63555;49.920;17.868;2022-10-24T04:37:22;12.37;;;4.20;;
69910;SDS011;63555;49.920;17.868;2022-10-24T04:39:48;9.37;;;4.00;;
69910;SDS011;63555;49.920;17.868;2022-10-24T04:42:13;7.07;;;3.73;;
69910;SDS011;63555;49.920;17.868;2022-10-24T04:44:38;6.57;;;3.80;;
69910;SDS011;63555;49.920;17.868;2022-10-24T04:47:04;7.05;;;4.13;;
69910;SDS011;63555;49.920;17.868;2022-10-24T04:49:29;9.23;;;4.53;;
69910;SDS011;63555;49.920;17.868;2022-10-24T04:51:55;8.37;;;4.40;;
69910;SDS011;63555;49.920;17.868;2022-10-24T04:54:20;7.73;;;4.90;;
69910;SDS011;63555;49.920;17.868;2022-10-24T04:56:45;8.23;;;4.27;;
69910;SDS011;63555;49.920;17.868;2022-10-24T04:59:11;8.83;;;4.87;;
69910;SDS011;63555;49.920;17.868;2022-10-24T05:01:36;7.53;;;4.27;;
69910;SDS011;63555;49.920;17.868;2022-10-24T05:04:01;9.52;;;4.35;;
69910;SDS011;63555;49.920;17.868;2022-10-24T05:06:27;8.30;;;4.33;;
69910;SDS011;63555;49.920;17.868;2022-10-24T05:08:52;9.17;;;4.03;;
69910;SDS011;63555;49.920;17.868;2022-10-24T05:11:17;8.63;;;4.33;;
69910;SDS011;63555;49.920;17.868;2022-10-24T05:13:43;9.27;;;4.80;;
69910;SDS011;63555;49.920;17.868;2022-10-24T05:16:08;9.95;;;5.10;;
69910;SDS011;63555;49.920;17.868;2022-10-24T05:18:34;9.55;;;4.65;;
69910;SDS011;63555;49.920;17.868;2022-10-24T05:20:59;10.03;;;4.73;;
69910;SDS011;63555;49.920;17.868;2022-10-24T05:23:25;9.18;;;4.47;;
69910;SDS011;63555;49.920;17.868;2022-10-24T05:25:51;9.10;;;4.73;;
69910;SDS011;63555;49.920;17.868;2022-10-24T05:28:16;10.87;;;4.73;;
69910;SDS011;63555;49.920;17.868;2022-10-24T05:30:42;9.48;;;5.00;;
69910;SDS011;63555;49.920;17.868;2022-10-24T05:33:08;18.20;;;5.93;;
69910;SDS011;63555;49.920;17.868;2022-10-24T05:35:33;9.68;;;5.25;;
69910;SDS011;63555;49.920;17.868;2022-10-24T05:37:59;10.33;;;5.27;;
69910;SDS011;63555;49.920;17.868;2022-10-24T05:40:24;8.07;;;4.63;;
69910;SDS011;63555;49.920;17.868;2022-10-24T05:42:49;10.80;;;4.93;;
69910;SDS011;63555;49.920;17.868;2022-10-24T05:45:16;9.55;;;5.32;;
69910;SDS011;63555;49.920;17.868;2022-10-24T05:47:42;10.07;;;4.47;;
69910;SDS011;63555;49.920;17.868;2022-10-24T05:50:08;9.77;;;4.83;;
69910;SDS011;63555;49.920;17.868;2022-10-24T05:52:34;10.63;;;4.47;;
69910;SDS011;63555;49.920;17.868;2022-10-24T05:55:01;9.13;;;4.13;;
69910;SDS011;63555;49.920;17.868;2022-10-24T05:57:29;11.70;;;4.50;;
69910;SDS011;63555;49.920;17.868;2022-10-24T05:59:55;11.15;;;4.53;;
69910;SDS011;63555;49.920;17.868;2022-10-24T06:02:20;8.33;;;4.20;;
69910;SDS011;63555;49.920;17.868;2022-10-24T06:04:46;7.80;;;4.30;;
69910;SDS011;63555;49.920;17.868;2022-10-24T06:07:12;8.27;;;4.38;;
69910;SDS011;63555;49.920;17.868;2022-10-24T06:09:41;10.40;;;5.05;;
69910;SDS011;63555;49.920;17.868;2022-10-24T06:12:07;7.77;;;4.50;;
69910;SDS011;63555;49.920;17.868;2022-10-24T06:14:35;9.07;;;4.65;;
69910;SDS011;63555;49.920;17.868;2022-10-24T06:17:01;9.77;;;4.45;;
